createdAt,value
2017-03-17T00:00:07.217Z,0
2017-03-17T00:01:07.537Z,0
2017-03-17T00:02:07.554Z,0
2017-03-17T00:03:07.620Z,0
2017-03-17T00:04:07.285Z,0
2017-03-17T00:05:07.610Z,0
2017-03-17T00:06:22.244Z,0
2017-03-17T00:07:07.646Z,0
2017-03-17T00:08:07.664Z,0
2017-03-17T00:09:07.679Z,0
2017-03-17T00:10:07.701Z,0
2017-03-17T00:11:07.714Z,0
2017-03-17T00:13:07.752Z,0
2017-03-17T00:14:22.384Z,0
2017-03-17T00:15:07.486Z,0
2017-03-17T00:16:07.502Z,0
2017-03-17T00:17:07.823Z,0
2017-03-17T00:18:07.535Z,0
2017-03-17T00:19:07.856Z,0
2017-03-17T00:20:07.876Z,0
2017-03-17T00:21:07.895Z,0
2017-03-17T00:22:07.911Z,0
2017-03-17T00:23:07.926Z,0
2017-03-17T00:24:07.946Z,0
2017-03-17T00:25:22.585Z,0
2017-03-17T00:26:07.986Z,0
2017-03-17T00:27:22.624Z,0
2017-03-17T00:29:08.038Z,0
2017-03-17T00:30:22.671Z,0
2017-03-17T00:31:08.074Z,0
2017-03-17T00:32:07.808Z,0
2017-03-17T00:33:08.106Z,0
2017-03-17T00:34:07.822Z,0
2017-03-17T00:35:08.144Z,0
2017-03-17T00:36:08.162Z,0
2017-03-17T00:37:07.873Z,0
2017-03-17T00:38:08.195Z,0
2017-03-17T00:39:08.218Z,0
2017-03-17T00:40:07.926Z,0
2017-03-17T00:41:07.949Z,0
2017-03-17T00:42:07.965Z,0
2017-03-17T00:43:22.901Z,0
2017-03-17T00:44:08.306Z,0
2017-03-17T00:45:22.935Z,0
2017-03-17T00:46:08.339Z,0
2017-03-17T00:48:08.373Z,0
2017-03-17T00:49:08.390Z,0
2017-03-17T00:50:08.407Z,0
2017-03-17T00:51:08.426Z,0
2017-03-17T00:52:08.442Z,0
2017-03-17T00:53:08.460Z,0
2017-03-17T00:54:08.478Z,0
2017-03-17T00:55:08.497Z,0
2017-03-17T00:56:23.129Z,0
2017-03-17T00:58:08.552Z,0
2017-03-17T00:59:08.567Z,0
2017-03-17T01:00:08.284Z,0
2017-03-17T01:01:08.607Z,0
2017-03-17T01:02:08.319Z,0
2017-03-17T01:03:08.641Z,0
2017-03-17T01:04:08.660Z,0
2017-03-17T01:05:08.672Z,0
2017-03-17T01:06:08.689Z,0
2017-03-17T01:07:08.705Z,0
2017-03-17T01:08:08.724Z,0
2017-03-17T01:09:23.360Z,0
2017-03-17T01:10:08.758Z,0
2017-03-17T01:11:08.778Z,0
2017-03-17T01:12:08.798Z,0
2017-03-17T01:13:23.426Z,0
2017-03-17T01:14:08.524Z,0
2017-03-17T01:16:08.560Z,0
2017-03-17T01:17:23.497Z,0
2017-03-17T01:18:08.900Z,0
2017-03-17T01:19:08.919Z,0
2017-03-17T01:20:08.630Z,0
2017-03-17T01:21:08.958Z,0
2017-03-17T01:22:08.969Z,0
2017-03-17T01:23:08.988Z,0
2017-03-17T01:24:09.011Z,0
2017-03-17T01:25:09.025Z,0
2017-03-17T01:26:09.037Z,0
2017-03-17T01:27:09.055Z,0
2017-03-17T01:28:09.071Z,0
2017-03-17T01:29:09.089Z,0
2017-03-17T01:31:08.823Z,0
2017-03-17T01:32:08.841Z,0
2017-03-17T01:33:23.777Z,0
2017-03-17T01:34:08.873Z,0
2017-03-17T01:35:08.890Z,0
2017-03-17T01:36:08.909Z,0
2017-03-17T01:37:09.229Z,0
2017-03-17T01:38:09.244Z,0
2017-03-17T01:39:09.267Z,0
2017-03-17T01:40:09.281Z,0
2017-03-17T01:41:09.299Z,0
2017-03-17T01:42:09.314Z,0
2017-03-17T01:43:09.336Z,0
2017-03-17T01:44:09.350Z,0
2017-03-17T01:45:09.370Z,0
2017-03-17T01:46:09.383Z,0
2017-03-17T01:47:09.406Z,0
2017-03-17T01:48:09.114Z,0
2017-03-17T01:49:24.052Z,0
2017-03-17T01:50:08.543Z,0
2017-03-17T01:52:09.184Z,0
2017-03-17T01:53:09.504Z,0
2017-03-17T01:54:09.220Z,0
2017-03-17T01:55:09.561Z,0
2017-03-17T01:56:09.556Z,0
2017-03-17T01:57:08.972Z,0
2017-03-17T01:58:09.285Z,0
2017-03-17T01:59:09.305Z,0
2017-03-17T02:00:09.625Z,0
2017-03-17T02:01:09.342Z,0
2017-03-17T02:03:24.294Z,0
2017-03-17T02:04:09.697Z,0
2017-03-17T02:05:24.328Z,0
2017-03-17T02:06:09.732Z,0
2017-03-17T02:07:09.443Z,0
2017-03-17T02:08:09.766Z,0
2017-03-17T02:09:09.781Z,0
2017-03-17T02:10:09.799Z,0
2017-03-17T02:11:09.816Z,0
2017-03-17T02:12:09.833Z,0
2017-03-17T02:13:09.848Z,0
2017-03-17T02:14:24.482Z,0
2017-03-17T02:15:09.886Z,0
2017-03-17T02:16:09.297Z,0
2017-03-17T02:19:09.952Z,0
2017-03-17T02:20:24.587Z,0
2017-03-17T02:22:10.003Z,0
2017-03-17T02:23:10.027Z,0
2017-03-17T02:24:09.738Z,0
2017-03-17T02:25:10.081Z,0
2017-03-17T02:26:10.072Z,0
2017-03-17T02:27:09.788Z,0
2017-03-17T02:28:09.806Z,0
2017-03-17T02:29:09.821Z,0
2017-03-17T02:30:09.838Z,0
2017-03-17T02:31:10.163Z,0
2017-03-17T02:32:10.173Z,0
2017-03-17T02:33:24.504Z,0
2017-03-17T02:34:10.209Z,0
2017-03-17T02:35:09.938Z,0
2017-03-17T02:36:09.946Z,0
2017-03-17T02:38:09.978Z,0
2017-03-17T02:39:09.999Z,0
2017-03-17T02:40:10.336Z,0
2017-03-17T02:41:10.025Z,0
2017-03-17T02:42:10.349Z,0
2017-03-17T02:43:10.369Z,0
2017-03-17T02:44:24.694Z,0
2017-03-17T02:45:24.710Z,0
2017-03-17T02:46:10.413Z,0
2017-03-17T02:47:10.434Z,0
2017-03-17T02:48:10.450Z,0
2017-03-17T02:50:10.191Z,0
2017-03-17T02:51:10.200Z,0
2017-03-17T02:52:25.132Z,0
2017-03-17T02:53:10.537Z,0
2017-03-17T02:54:10.253Z,0
2017-03-17T02:55:10.570Z,0
2017-03-17T02:56:09.978Z,0
2017-03-17T02:57:09.997Z,0
2017-03-17T02:58:10.618Z,0
2017-03-17T02:59:10.333Z,0
2017-03-17T03:00:10.653Z,0
2017-03-17T03:01:24.981Z,0
2017-03-17T03:02:10.080Z,0
2017-03-17T03:03:10.404Z,0
2017-03-17T03:06:10.451Z,0
2017-03-17T03:07:10.468Z,0
2017-03-17T03:08:25.410Z,0
2017-03-17T03:09:10.505Z,0
2017-03-17T03:10:10.522Z,0
2017-03-17T03:11:10.839Z,0
2017-03-17T03:12:10.557Z,0
2017-03-17T03:13:10.876Z,0
2017-03-17T03:14:10.588Z,0
2017-03-17T03:15:10.922Z,0
2017-03-17T03:16:10.927Z,0
2017-03-17T03:17:10.941Z,0
2017-03-17T03:18:10.964Z,0
2017-03-17T03:19:25.605Z,0
2017-03-17T03:21:11.011Z,0
2017-03-17T03:22:10.416Z,0
2017-03-17T03:23:11.049Z,0
2017-03-17T03:24:25.680Z,0
2017-03-17T03:25:11.098Z,0
2017-03-17T03:26:11.095Z,0
2017-03-17T03:27:11.113Z,0
2017-03-17T03:28:11.332Z,0
2017-03-17T03:29:25.764Z,0
2017-03-17T03:30:25.475Z,0
2017-03-17T03:31:11.177Z,0
2017-03-17T03:32:11.194Z,0
2017-03-17T03:33:11.214Z,0
2017-03-17T03:34:11.257Z,0
2017-03-17T03:35:10.948Z,0
2017-03-17T03:36:11.260Z,0
2017-03-17T03:37:10.976Z,0
2017-03-17T03:38:10.995Z,0
2017-03-17T03:40:25.948Z,0
2017-03-17T03:41:11.043Z,0
2017-03-17T03:42:11.063Z,0
2017-03-17T03:43:11.384Z,0
2017-03-17T03:44:11.400Z,0
2017-03-17T03:45:10.808Z,0
2017-03-17T03:46:11.433Z,0
2017-03-17T03:47:11.478Z,0
2017-03-17T03:48:11.480Z,0
2017-03-17T03:49:11.490Z,0
2017-03-17T03:50:11.500Z,0
2017-03-17T03:51:11.211Z,0
2017-03-17T03:52:26.148Z,0
2017-03-17T03:54:11.569Z,0
2017-03-17T03:55:26.200Z,0
2017-03-17T03:56:11.602Z,0
2017-03-17T03:57:11.315Z,0
2017-03-17T03:58:11.062Z,0
2017-03-17T03:59:11.654Z,0
2017-03-17T04:00:11.672Z,0
2017-03-17T04:01:11.686Z,0
2017-03-17T04:02:12.006Z,0
2017-03-17T04:03:11.724Z,0
2017-03-17T04:04:11.752Z,0
2017-03-17T04:05:11.450Z,0
2017-03-17T04:06:11.465Z,0
2017-03-17T04:07:11.789Z,0
2017-03-17T04:08:11.811Z,0
2017-03-17T04:09:11.825Z,0
2017-03-17T04:10:11.533Z,0
2017-03-17T04:11:11.857Z,0
2017-03-17T04:12:11.872Z,0
2017-03-17T04:13:11.901Z,0
2017-03-17T04:14:11.296Z,0
2017-03-17T04:15:11.920Z,0
2017-03-17T04:16:11.954Z,0
2017-03-17T04:17:11.956Z,0
2017-03-17T04:19:11.685Z,0
2017-03-17T04:20:11.705Z,0
2017-03-17T04:21:12.018Z,0
2017-03-17T04:22:11.738Z,0
2017-03-17T04:26:11.803Z,0
2017-03-17T04:27:26.742Z,0
2017-03-17T04:28:12.139Z,0
2017-03-17T04:29:12.161Z,0
2017-03-17T04:30:11.870Z,0
2017-03-17T04:31:11.886Z,0
2017-03-17T04:32:11.933Z,0
2017-03-17T04:33:26.842Z,0
2017-03-17T04:34:11.972Z,0
2017-03-17T04:35:11.953Z,0
2017-03-17T04:36:26.889Z,0
2017-03-17T04:37:11.987Z,0
2017-03-17T04:38:12.006Z,0
2017-03-17T04:39:12.021Z,0
2017-03-17T04:40:12.037Z,0
2017-03-17T04:41:12.356Z,4
2017-03-17T04:42:11.768Z,4
2017-03-17T04:43:27.010Z,4
2017-03-17T04:45:12.422Z,4
2017-03-17T04:46:12.144Z,4
2017-03-17T04:47:12.457Z,4
2017-03-17T04:48:12.477Z,4
2017-03-17T04:49:12.494Z,8
2017-03-17T04:50:12.514Z,8
2017-03-17T04:51:12.526Z,8
2017-03-17T04:52:12.238Z,8
2017-03-17T04:53:27.179Z,12
2017-03-17T04:55:27.209Z,16
2017-03-17T04:56:26.920Z,20
2017-03-17T04:57:12.328Z,24
2017-03-17T04:59:27.275Z,36
2017-03-17T05:00:12.685Z,36
2017-03-17T05:01:12.697Z,44
2017-03-17T05:02:12.716Z,52
2017-03-17T05:03:12.427Z,56
2017-03-17T05:04:12.440Z,68
2017-03-17T05:05:12.157Z,76
2017-03-17T05:06:27.394Z,88
2017-03-17T05:07:12.797Z,96
2017-03-17T05:08:12.511Z,108
2017-03-17T05:09:12.851Z,120
2017-03-17T05:10:12.237Z,132
2017-03-17T05:11:12.870Z,148
2017-03-17T05:12:12.272Z,160
2017-03-17T05:13:12.923Z,176
2017-03-17T05:14:12.606Z,200
2017-03-17T05:15:27.239Z,220
2017-03-17T05:16:12.946Z,236
2017-03-17T05:17:12.961Z,260
2017-03-17T05:18:12.976Z,284
2017-03-17T05:19:12.996Z,308
2017-03-17T05:20:13.014Z,336
2017-03-17T05:21:13.026Z,364
2017-03-17T05:22:27.664Z,404
2017-03-17T05:23:13.067Z,432
2017-03-17T05:24:13.081Z,464
2017-03-17T05:25:27.716Z,504
2017-03-17T05:27:13.132Z,568
2017-03-17T05:28:12.844Z,608
2017-03-17T05:29:12.865Z,660
2017-03-17T05:30:27.799Z,748
2017-03-17T05:31:13.199Z,788
2017-03-17T05:32:12.913Z,816
2017-03-17T05:33:13.229Z,896
2017-03-17T05:34:13.252Z,1000
2017-03-17T05:35:13.263Z,1092
2017-03-17T05:36:13.281Z,1216
2017-03-17T05:37:13.000Z,1332
2017-03-17T05:38:13.013Z,1380
2017-03-17T05:39:13.338Z,1372
2017-03-17T05:40:27.661Z,1524
2017-03-17T05:41:13.062Z,1648
2017-03-17T05:42:13.083Z,1764
2017-03-17T05:43:13.405Z,1864
2017-03-17T05:45:13.435Z,1800
2017-03-17T05:47:13.169Z,2204
2017-03-17T05:48:13.486Z,2428
2017-03-17T05:49:13.505Z,2592
2017-03-17T05:50:13.520Z,2740
2017-03-17T05:51:13.541Z,2948
2017-03-17T05:53:13.577Z,3256
2017-03-17T05:54:28.209Z,3348
2017-03-17T05:55:13.304Z,3292
2017-03-17T05:56:13.321Z,3188
2017-03-17T05:57:13.645Z,3156
2017-03-17T05:58:28.280Z,2864
2017-03-17T05:59:13.683Z,2732
2017-03-17T06:00:13.694Z,2480
2017-03-17T06:01:13.717Z,2200
2017-03-17T06:02:28.349Z,2096
2017-03-17T06:03:13.749Z,2068
2017-03-17T06:04:13.769Z,2176
2017-03-17T06:05:13.806Z,2296
2017-03-17T06:06:13.804Z,2208
2017-03-17T06:07:28.440Z,2200
2017-03-17T06:08:13.868Z,2500
2017-03-17T06:09:13.858Z,2140
2017-03-17T06:10:13.870Z,1836
2017-03-17T06:11:13.894Z,1868
2017-03-17T06:13:13.930Z,2384
2017-03-17T06:14:13.646Z,2720
2017-03-17T06:15:13.970Z,3164
2017-03-17T06:16:13.982Z,3624
2017-03-17T06:17:14.004Z,4124
2017-03-17T06:18:28.636Z,4224
2017-03-17T06:19:14.039Z,4504
2017-03-17T06:20:14.055Z,4928
2017-03-17T06:21:14.079Z,5224
2017-03-17T06:22:14.089Z,5156
2017-03-17T06:23:14.110Z,4764
2017-03-17T06:24:14.130Z,4896
2017-03-17T06:25:28.459Z,4424
2017-03-17T06:26:13.868Z,4708
2017-03-17T06:27:28.495Z,4948
2017-03-17T06:28:13.895Z,4520
2017-03-17T06:29:14.220Z,4476
2017-03-17T06:30:13.937Z,4260
2017-03-17T06:31:14.256Z,4016
2017-03-17T06:32:13.972Z,3580
2017-03-17T06:33:13.992Z,3188
2017-03-17T06:34:28.933Z,3280
2017-03-17T06:35:14.027Z,3696
2017-03-17T06:36:14.048Z,4208
2017-03-17T06:37:14.068Z,4024
2017-03-17T06:38:14.422Z,3256
2017-03-17T06:39:14.411Z,2756
2017-03-17T06:40:14.122Z,2568
2017-03-17T06:41:14.747Z,2516
2017-03-17T06:42:14.466Z,2664
2017-03-17T06:43:14.483Z,3032
2017-03-17T06:44:14.502Z,3244
2017-03-17T06:45:14.522Z,3080
2017-03-17T06:46:29.154Z,2532
2017-03-17T06:47:14.560Z,2240
2017-03-17T06:48:13.978Z,2000
2017-03-17T06:49:14.603Z,1952
2017-03-17T06:50:28.928Z,1984
2017-03-17T06:51:14.635Z,1932
2017-03-17T06:52:14.347Z,1952
2017-03-17T06:53:14.681Z,1980
2017-03-17T06:54:14.083Z,2116
2017-03-17T06:55:14.708Z,2100
2017-03-17T06:56:14.740Z,1936
2017-03-17T06:57:14.784Z,1896
2017-03-17T06:58:14.775Z,1932
2017-03-17T06:59:14.789Z,1996
2017-03-17T07:00:14.498Z,2088
2017-03-17T07:01:29.437Z,2408
2017-03-17T07:02:14.260Z,2560
2017-03-17T07:03:14.869Z,2832
2017-03-17T07:04:14.891Z,2872
2017-03-17T07:05:29.547Z,2952
2017-03-17T07:06:14.919Z,3236
2017-03-17T07:07:14.943Z,3536
2017-03-17T07:08:14.957Z,3296
2017-03-17T07:09:14.977Z,2988
2017-03-17T07:10:14.998Z,2864
2017-03-17T07:11:15.013Z,2724
2017-03-17T07:12:15.057Z,2612
2017-03-17T07:13:15.056Z,2452
2017-03-17T07:15:29.707Z,1888
2017-03-17T07:16:15.109Z,1832
2017-03-17T07:17:29.744Z,1764
2017-03-17T07:18:15.153Z,1752
2017-03-17T07:19:15.174Z,1692
2017-03-17T07:20:15.188Z,1544
2017-03-17T07:22:14.921Z,1504
2017-03-17T07:23:15.253Z,1564
2017-03-17T07:24:15.277Z,1624
2017-03-17T07:25:15.284Z,1664
2017-03-17T07:26:15.299Z,1720
2017-03-17T07:27:15.364Z,1708
2017-03-17T07:28:29.957Z,1644
2017-03-17T07:29:15.057Z,1600
2017-03-17T07:30:15.381Z,1540
2017-03-17T07:31:15.402Z,1448
2017-03-17T07:32:15.116Z,1340
2017-03-17T07:33:15.135Z,1320
2017-03-17T07:34:15.152Z,1168
2017-03-17T07:35:15.173Z,1040
2017-03-17T07:36:15.190Z,972
2017-03-17T07:37:30.131Z,932
2017-03-17T07:38:15.231Z,892
2017-03-17T07:39:15.251Z,804
2017-03-17T07:40:15.269Z,756
2017-03-17T07:41:15.287Z,708
2017-03-17T07:42:15.308Z,740
2017-03-17T07:43:15.329Z,708
2017-03-17T07:44:15.650Z,724
2017-03-17T07:45:15.371Z,840
2017-03-17T07:46:15.685Z,936
2017-03-17T07:47:15.404Z,956
2017-03-17T07:48:15.729Z,892
2017-03-17T07:49:15.755Z,892
2017-03-17T07:51:15.792Z,956
2017-03-17T07:52:15.809Z,1108
2017-03-17T07:53:30.441Z,1352
2017-03-17T07:54:15.855Z,1524
2017-03-17T07:55:15.863Z,1740
2017-03-17T07:56:15.577Z,1896
2017-03-17T07:57:15.898Z,1848
2017-03-17T07:58:15.928Z,1680
2017-03-17T07:59:15.948Z,1640
2017-03-17T08:00:15.970Z,1684
2017-03-17T08:01:15.374Z,1784
2017-03-17T08:02:15.697Z,1896
2017-03-17T08:03:16.025Z,1972
2017-03-17T08:04:16.048Z,2072
2017-03-17T08:05:30.067Z,2276
2017-03-17T08:06:30.390Z,2344
2017-03-17T08:07:30.409Z,2368
2017-03-17T08:08:15.513Z,2372
2017-03-17T08:09:30.756Z,2480
2017-03-17T08:10:16.160Z,2616
2017-03-17T08:11:16.179Z,2736
2017-03-17T08:12:16.201Z,2944
2017-03-17T08:13:16.222Z,3176
2017-03-17T08:14:16.245Z,3272
2017-03-17T08:15:16.256Z,3472
2017-03-17T08:16:15.976Z,3624
2017-03-17T08:17:16.299Z,3636
2017-03-17T08:18:16.319Z,3904
2017-03-17T08:19:30.955Z,4040
2017-03-17T08:20:16.354Z,3956
2017-03-17T08:21:16.384Z,3908
2017-03-17T08:22:16.426Z,4612
2017-03-17T08:23:16.426Z,5576
2017-03-17T08:25:31.070Z,8396
2017-03-17T08:26:15.867Z,9508
2017-03-17T08:27:16.496Z,11400
2017-03-17T08:28:16.213Z,24832
2017-03-17T08:29:16.540Z,19552
2017-03-17T08:30:16.556Z,15768
2017-03-17T08:31:16.273Z,13556
2017-03-17T08:32:16.601Z,11664
2017-03-17T08:33:31.237Z,10404
2017-03-17T08:35:16.359Z,10392
2017-03-17T08:36:16.078Z,10080
2017-03-17T08:37:31.019Z,9644
2017-03-17T08:38:16.731Z,9328
2017-03-17T08:39:16.751Z,10208
2017-03-17T08:40:31.394Z,12548
2017-03-17T08:42:16.815Z,12976
2017-03-17T08:43:16.839Z,14396
2017-03-17T08:44:16.859Z,15100
2017-03-17T08:45:16.881Z,21984
2017-03-17T08:46:16.912Z,23200
2017-03-17T08:47:16.924Z,22912
2017-03-17T08:48:31.563Z,21248
2017-03-17T08:49:16.672Z,18752
2017-03-17T08:50:31.607Z,19584
2017-03-17T08:51:17.011Z,22240
2017-03-17T08:52:17.039Z,21280
2017-03-17T08:53:17.064Z,20704
2017-03-17T08:54:16.788Z,19264
2017-03-17T08:55:17.110Z,20704
2017-03-17T08:56:17.131Z,19776
2017-03-17T08:57:17.151Z,18400
2017-03-17T08:58:16.904Z,15588
2017-03-17T08:59:17.201Z,13176
2017-03-17T09:00:17.220Z,11268
2017-03-17T09:01:17.242Z,10280
2017-03-17T09:02:17.268Z,10056
2017-03-17T09:03:31.909Z,10556
2017-03-17T09:04:17.321Z,10864
2017-03-17T09:05:17.340Z,12568
2017-03-17T09:06:17.365Z,14860
2017-03-17T09:08:17.417Z,15944
2017-03-17T09:09:17.454Z,15612
2017-03-17T09:10:17.461Z,16264
2017-03-17T09:11:17.478Z,15888
2017-03-17T09:12:31.818Z,15272
2017-03-17T09:13:17.525Z,15392
2017-03-17T09:14:17.553Z,16228
2017-03-17T09:15:17.270Z,16036
2017-03-17T09:16:17.599Z,16328
2017-03-17T09:17:17.631Z,13852
2017-03-17T09:18:17.652Z,13568
2017-03-17T09:19:17.672Z,14228
2017-03-17T09:20:17.693Z,14240
2017-03-17T09:21:32.335Z,12812
2017-03-17T09:22:17.746Z,12540
2017-03-17T09:24:17.791Z,13296
2017-03-17T09:25:17.811Z,13324
2017-03-17T09:26:17.840Z,13468
2017-03-17T09:27:17.861Z,12408
2017-03-17T09:28:32.501Z,11508
2017-03-17T09:29:17.917Z,10444
2017-03-17T09:30:17.932Z,9832
2017-03-17T09:31:17.956Z,8776
2017-03-17T09:32:17.985Z,8580
2017-03-17T09:33:18.026Z,8560
2017-03-17T09:34:18.039Z,7360
2017-03-17T09:35:18.064Z,6800
2017-03-17T09:36:17.775Z,7152
2017-03-17T09:37:18.105Z,6412
2017-03-17T09:38:18.131Z,5920
2017-03-17T09:39:32.462Z,5964
2017-03-17T09:40:32.787Z,5604
2017-03-17T09:41:18.195Z,5420
2017-03-17T09:42:32.831Z,6676
2017-03-17T09:43:18.244Z,6592
2017-03-17T09:44:32.574Z,7500
2017-03-17T09:45:18.284Z,7276
2017-03-17T09:46:18.314Z,7412
2017-03-17T09:47:18.338Z,7216
2017-03-17T09:48:18.360Z,6228
2017-03-17T09:49:18.382Z,5760
2017-03-17T09:50:18.402Z,5864
2017-03-17T09:51:18.327Z,6020
2017-03-17T09:52:18.447Z,5760
2017-03-17T09:53:18.472Z,5588
2017-03-17T09:54:32.812Z,5060
2017-03-17T09:55:18.214Z,4704
2017-03-17T09:56:32.867Z,5332
2017-03-17T09:57:33.180Z,5540
2017-03-17T09:58:18.589Z,5364
2017-03-17T09:59:18.611Z,5892
2017-03-17T10:00:33.273Z,6316
2017-03-17T10:01:18.352Z,6728
2017-03-17T10:02:18.383Z,6496
2017-03-17T10:03:18.403Z,6200
2017-03-17T10:04:18.727Z,5548
2017-03-17T10:05:18.442Z,5040
2017-03-17T10:06:18.494Z,4548
2017-03-17T10:07:18.489Z,4232
2017-03-17T10:08:18.513Z,4552
2017-03-17T10:09:18.846Z,4756
2017-03-17T10:10:18.858Z,4416
2017-03-17T10:11:33.198Z,3380
2017-03-17T10:13:19.110Z,2996
2017-03-17T10:14:18.952Z,2868
2017-03-17T10:15:33.591Z,2164
2017-03-17T10:17:19.016Z,1868
2017-03-17T10:18:19.061Z,1924
2017-03-17T10:19:19.071Z,2220
2017-03-17T10:20:19.087Z,2488
2017-03-17T10:21:19.113Z,2692
2017-03-17T10:22:19.132Z,2140
2017-03-17T10:23:18.854Z,2052
2017-03-17T10:24:18.873Z,2392
2017-03-17T10:25:18.892Z,2728
2017-03-17T10:26:19.221Z,2640
2017-03-17T10:27:33.555Z,2580
2017-03-17T10:28:19.261Z,2500
2017-03-17T10:29:18.982Z,2808
2017-03-17T10:30:19.304Z,3396
2017-03-17T10:31:19.034Z,4064
2017-03-17T10:32:19.352Z,4468
2017-03-17T10:33:19.382Z,4176
2017-03-17T10:34:19.393Z,3836
2017-03-17T10:35:19.116Z,4160
2017-03-17T10:36:19.436Z,4704
2017-03-17T10:37:19.464Z,4528
2017-03-17T10:38:19.501Z,3980
2017-03-17T10:39:34.121Z,3036
2017-03-17T10:40:19.774Z,2972
2017-03-17T10:41:19.244Z,3080
2017-03-17T10:42:19.568Z,3012
2017-03-17T10:43:19.590Z,2500
2017-03-17T10:44:19.613Z,2396
2017-03-17T10:45:34.349Z,2228
2017-03-17T10:46:19.655Z,2260
2017-03-17T10:47:34.294Z,2796
2017-03-17T10:48:19.721Z,2940
2017-03-17T10:49:19.756Z,3140
2017-03-17T10:50:19.439Z,3688
2017-03-17T10:51:19.459Z,3768
2017-03-17T10:52:19.787Z,3700
2017-03-17T10:53:19.810Z,3448
2017-03-17T10:54:19.834Z,3332
2017-03-17T10:55:19.850Z,3216
2017-03-17T10:56:19.574Z,3320
2017-03-17T10:57:34.510Z,3296
2017-03-17T10:58:19.919Z,3132
2017-03-17T10:59:19.941Z,3084
2017-03-17T11:00:19.960Z,3304
2017-03-17T11:01:34.294Z,3472
2017-03-17T11:02:20.006Z,3356
2017-03-17T11:03:34.340Z,3252
2017-03-17T11:04:20.055Z,3188
2017-03-17T11:05:20.071Z,3208
2017-03-17T11:06:20.101Z,3328
2017-03-17T11:07:19.810Z,3280
2017-03-17T11:08:20.141Z,3392
2017-03-17T11:09:20.157Z,3456
2017-03-17T11:10:19.872Z,3620
2017-03-17T11:11:20.198Z,3976
2017-03-17T11:12:20.223Z,4412
2017-03-17T11:13:20.245Z,4764
2017-03-17T11:14:20.264Z,5236
2017-03-17T11:15:19.984Z,5420
2017-03-17T11:16:34.922Z,5672
2017-03-17T11:17:20.330Z,5652
2017-03-17T11:18:20.355Z,5484
2017-03-17T11:19:34.987Z,5512
2017-03-17T11:21:20.416Z,5652
2017-03-17T11:22:20.443Z,5412
2017-03-17T11:23:20.461Z,5100
2017-03-17T11:24:20.180Z,4740
2017-03-17T11:25:20.502Z,4256
2017-03-17T11:26:20.540Z,4308
2017-03-17T11:27:20.547Z,4180
2017-03-17T11:28:19.970Z,4332
2017-03-17T11:29:20.598Z,4744
2017-03-17T11:30:20.610Z,5056
2017-03-17T11:31:20.632Z,5320
2017-03-17T11:33:20.695Z,5348
2017-03-17T11:34:20.705Z,5340
2017-03-17T11:35:35.038Z,6600
2017-03-17T11:36:20.439Z,6976
2017-03-17T11:37:20.768Z,7308
2017-03-17T11:38:20.790Z,7656
2017-03-17T11:39:20.812Z,8088
2017-03-17T11:40:20.832Z,7940
2017-03-17T11:41:20.853Z,7928
2017-03-17T11:42:20.571Z,8184
2017-03-17T11:43:20.901Z,7364
2017-03-17T11:44:35.597Z,6336
2017-03-17T11:45:20.946Z,6296
2017-03-17T11:46:35.276Z,6756
2017-03-17T11:47:20.989Z,7412
2017-03-17T11:49:21.045Z,6084
2017-03-17T11:50:35.369Z,6416
2017-03-17T11:51:21.079Z,6752
2017-03-17T11:52:21.105Z,6592
2017-03-17T11:53:21.131Z,6480
2017-03-17T11:54:20.846Z,6660
2017-03-17T11:55:21.171Z,6684
2017-03-17T11:56:21.194Z,6316
2017-03-17T11:57:21.222Z,6032
2017-03-17T11:58:21.243Z,5336
2017-03-17T11:59:21.263Z,4368
2017-03-17T12:00:35.899Z,4628
2017-03-17T12:01:21.309Z,4200
2017-03-17T12:02:35.943Z,3552
2017-03-17T12:03:35.967Z,3356
2017-03-17T12:05:21.398Z,2660
2017-03-17T12:06:21.416Z,2288
2017-03-17T12:07:21.451Z,2136
2017-03-17T12:08:21.482Z,1968
2017-03-17T12:09:21.525Z,2000
2017-03-17T12:10:21.516Z,1732
2017-03-17T12:11:21.223Z,1632
2017-03-17T12:12:21.552Z,1908
2017-03-17T12:13:36.194Z,2072
2017-03-17T12:14:36.216Z,2036
2017-03-17T12:15:36.237Z,2452
2017-03-17T12:16:36.257Z,3256
2017-03-17T12:17:21.663Z,4144
2017-03-17T12:18:21.689Z,4844
2017-03-17T12:19:21.710Z,4716
2017-03-17T12:20:36.346Z,4428
2017-03-17T12:21:21.766Z,3624
2017-03-17T12:22:36.389Z,3220
2017-03-17T12:23:21.817Z,3928
2017-03-17T12:24:21.832Z,5136
2017-03-17T12:25:21.842Z,4996
2017-03-17T12:26:21.871Z,4688
2017-03-17T12:27:21.885Z,4816
2017-03-17T12:28:21.916Z,4696
2017-03-17T12:29:36.245Z,5284
2017-03-17T12:30:21.974Z,5560
2017-03-17T12:31:36.292Z,5812
2017-03-17T12:32:21.999Z,5884
2017-03-17T12:33:21.718Z,6152
2017-03-17T12:34:36.659Z,6752
2017-03-17T12:35:36.678Z,7420
2017-03-17T12:37:22.105Z,7972
2017-03-17T12:38:36.442Z,8012
2017-03-17T12:40:21.869Z,7960
2017-03-17T12:41:22.197Z,7932
2017-03-17T12:42:22.222Z,8052
2017-03-17T12:43:21.938Z,8172
2017-03-17T12:44:22.268Z,7936
2017-03-17T12:45:22.288Z,7520
2017-03-17T12:46:22.254Z,7024
2017-03-17T12:47:36.951Z,6748
2017-03-17T12:48:36.665Z,6728
2017-03-17T12:49:22.381Z,6708
2017-03-17T12:50:22.401Z,6700
2017-03-17T12:51:22.117Z,6716
2017-03-17T12:52:22.448Z,6752
2017-03-17T12:53:22.480Z,6724
2017-03-17T12:54:37.106Z,6548
2017-03-17T12:55:22.508Z,6552
2017-03-17T12:56:22.532Z,6612
2017-03-17T12:57:22.553Z,6672
2017-03-17T12:58:22.583Z,7204
2017-03-17T12:59:21.997Z,7260
2017-03-17T13:00:22.320Z,7124
2017-03-17T13:01:22.643Z,7236
2017-03-17T13:02:22.668Z,7260
2017-03-17T13:03:37.308Z,7232
2017-03-17T13:04:22.719Z,7196
2017-03-17T13:05:22.737Z,7168
2017-03-17T13:06:22.757Z,7152
2017-03-17T13:07:37.097Z,7116
2017-03-17T13:08:22.810Z,7024
2017-03-17T13:09:22.834Z,6892
2017-03-17T13:10:37.465Z,6736
2017-03-17T13:11:22.870Z,6672
2017-03-17T13:12:22.893Z,6552
2017-03-17T13:13:22.916Z,6360
2017-03-17T13:14:22.944Z,6196
2017-03-17T13:15:22.963Z,6080
2017-03-17T13:16:22.985Z,5956
2017-03-17T13:17:23.008Z,5800
2017-03-17T13:18:37.343Z,5652
2017-03-17T13:19:23.058Z,5628
2017-03-17T13:20:23.077Z,5668
2017-03-17T13:21:37.717Z,5776
2017-03-17T13:22:22.526Z,5836
2017-03-17T13:24:23.201Z,5936
2017-03-17T13:25:37.805Z,5852
2017-03-17T13:26:23.259Z,5816
2017-03-17T13:27:23.237Z,5796
2017-03-17T13:28:23.287Z,5792
2017-03-17T13:29:23.290Z,5772
2017-03-17T13:30:23.302Z,5768
2017-03-17T13:31:23.321Z,5788
2017-03-17T13:33:37.986Z,5684
2017-03-17T13:34:23.399Z,5672
2017-03-17T13:35:38.030Z,5652
2017-03-17T13:36:23.462Z,5620
2017-03-17T13:37:23.459Z,5564
2017-03-17T13:38:23.486Z,5464
2017-03-17T13:39:23.503Z,5360
2017-03-17T13:40:23.525Z,5224
2017-03-17T13:41:23.550Z,5112
2017-03-17T13:42:23.266Z,4956
2017-03-17T13:43:23.593Z,4832
2017-03-17T13:44:23.619Z,4756
2017-03-17T13:45:23.631Z,4660
2017-03-17T13:46:23.661Z,4608
2017-03-17T13:47:23.717Z,4664
2017-03-17T13:48:23.707Z,4792
2017-03-17T13:49:38.041Z,4844
2017-03-17T13:50:23.746Z,4832
2017-03-17T13:51:23.770Z,4868
2017-03-17T13:52:38.408Z,4848
2017-03-17T13:53:23.824Z,4796
2017-03-17T13:54:23.847Z,4696
2017-03-17T13:55:38.175Z,4476
2017-03-17T13:56:23.890Z,4320
2017-03-17T13:57:38.218Z,4056
2017-03-17T13:58:23.940Z,3892
2017-03-17T13:59:23.960Z,3716
2017-03-17T14:00:23.986Z,3560
2017-03-17T14:01:24.342Z,3428
2017-03-17T14:02:24.023Z,3328
2017-03-17T14:03:24.044Z,3236
2017-03-17T14:04:24.066Z,3160
2017-03-17T14:06:24.105Z,3044
2017-03-17T14:08:38.464Z,2968
2017-03-17T14:09:38.788Z,2948
2017-03-17T14:10:38.808Z,2956
2017-03-17T14:12:24.251Z,2964
2017-03-17T14:13:38.873Z,2996
2017-03-17T14:14:24.283Z,3048
2017-03-17T14:15:24.315Z,3148
2017-03-17T14:16:24.332Z,3260
2017-03-17T14:17:24.351Z,3320
2017-03-17T14:18:24.370Z,3296
2017-03-17T14:19:24.389Z,3224
2017-03-17T14:20:24.115Z,3152
2017-03-17T14:21:39.050Z,3120
2017-03-17T14:22:39.072Z,3160
2017-03-17T14:23:24.174Z,3216
2017-03-17T14:24:24.196Z,3296
2017-03-17T14:26:24.544Z,3328
2017-03-17T14:27:24.568Z,3336
2017-03-17T14:28:24.590Z,3388
2017-03-17T14:29:39.223Z,3456
2017-03-17T14:30:24.631Z,3484
2017-03-17T14:31:24.654Z,3504
2017-03-17T14:32:24.674Z,3512
2017-03-17T14:33:24.704Z,3500
2017-03-17T14:34:24.417Z,3448
2017-03-17T14:35:39.055Z,3332
2017-03-17T14:36:24.163Z,3256
2017-03-17T14:37:24.782Z,3184